Observation data for Seminole on 03/01/2021      Previous  Date  Next       Current Mesonet Observations  Soil Data  Daily Summary Page  Observations in Plain Language
KSM1 010600Z 06017G23KT 08/M10 A3008 RMK A01 T00791104  RH  026%=      5-min Rain = 0
KSM1 010605Z 05016G21KT 08/M10 A3008 RMK A01 T00791103  RH  026%=      5-min Rain = 0
KSM1 010610Z 06018G24KT 08/M10 A3008 RMK A01 T00781101  RH  027%=      5-min Rain = 0
KSM1 010615Z 05019G25KT 08/M10 A3008 RMK A01 T00771101  RH  027%=      5-min Rain = 0
KSM1 010620Z 05017G24KT 08/M10 A3008 RMK A01 T00751100  RH  028%=      5-min Rain = 0
KSM1 010625Z 05018KT 07/M10 A3008 RMK A01 T00741099  RH  028%=      5-min Rain = 0
KSM1 010630Z 05019G25KT 07/M10 A3008 RMK A01 T00741099  RH  028%=      5-min Rain = 0
KSM1 010635Z 05021G27KT 07/M10 A3008 RMK A01 T00731099  RH  028%=      5-min Rain = 0
KSM1 010640Z 05020G26KT 07/M10 A3008 RMK A01 T00721099  RH  028%=      5-min Rain = 0
KSM1 010645Z 05019G26KT 07/M10 A3008 RMK A01 T00721098  RH  029%=      5-min Rain = 0
KSM1 010650Z 04019G27KT 07/M10 A3008 RMK A01 T00701098  RH  029%=      5-min Rain = 0
KSM1 010655Z 05021G29KT 07/M10 A3008 RMK A01 T00691098  RH  029%=      5-min Rain = 0
KSM1 010700Z 04018G24KT 07/M10 A3008 RMK A01 T00681098  RH  029%=      5-min Rain = 0
KSM1 010705Z 03018G24KT 07/M10 A3008 RMK A01 T00661099  RH  030%=      5-min Rain = 0
KSM1 010710Z 04020G25KT 07/M10 A3008 RMK A01 T00651099  RH  030%=      5-min Rain = 0
KSM1 010715Z 04019G25KT 06/M10 A3007 RMK A01 T00641098  RH  030%=      5-min Rain = 0
KSM1 010720Z 04019G25KT 06/M10 A3007 RMK A01 T00641097  RH  030%=      5-min Rain = 0
KSM1 010725Z 04018G27KT 06/M10 A3008 RMK A01 T00641097  RH  031%=      5-min Rain = 0
KSM1 010730Z 04018G25KT 06/M10 A301 RMK A01 T00641096  RH  031%=      5-min Rain = 0
KSM1 010735Z 04015KT 06/M10 A301 RMK A01 T00631095  RH  031%=      5-min Rain = 0
KSM1 010740Z 05019G25KT 06/M10 A3009 RMK A01 T00621095  RH  031%=      5-min Rain = 0
KSM1 010745Z 05019G25KT 06/M10 A3009 RMK A01 T00611095  RH  032%=      5-min Rain = 0
KSM1 010750Z 05018G23KT 06/M10 A3011 RMK A01 T00601095  RH  032%=      5-min Rain = 0
KSM1 010755Z 04016G22KT 06/M09 A3013 RMK A01 T00601094  RH  032%=      5-min Rain = 0
KSM1 010800Z 04015G21KT 06/M09 A3014 RMK A01 T00601094  RH  032%=      5-min Rain = 0
KSM1 010805Z 04015KT 06/M10 A3015 RMK A01 T00601095  RH  032%=      5-min Rain = 0
KSM1 010810Z 05015G21KT 06/M09 A3014 RMK A01 T00591094  RH  032%=      5-min Rain = 0
KSM1 010815Z 05020G27KT 06/M10 A3012 RMK A01 T00581095  RH  032%=      5-min Rain = 0
KSM1 010820Z 06020G26KT 06/M10 A3013 RMK A01 T00571095  RH  033%=      5-min Rain = 0
KSM1 010825Z 05016G22KT 06/M10 A3014 RMK A01 T00561095  RH  033%=      5-min Rain = 0
KSM1 010830Z 05016G21KT 06/M10 A3015 RMK A01 T00561095  RH  033%=      5-min Rain = 0
KSM1 010835Z 04014G19KT 06/M09 A3017 RMK A01 T00561094  RH  033%=      5-min Rain = 0
KSM1 010840Z 05013KT 06/M09 A3017 RMK A01 T00551094  RH  033%=      5-min Rain = 0
KSM1 010845Z 05014G19KT 05/M09 A3017 RMK A01 T00541094  RH  033%=      5-min Rain = 0
KSM1 010850Z 04013KT 05/M09 A3017 RMK A01 T00541093  RH  034%=      5-min Rain = 0
KSM1 010855Z 04012G18KT 05/M09 A3017 RMK A01 T00531094  RH  034%=      5-min Rain = 0
KSM1 010900Z 03012KT 05/M09 A3017 RMK A01 T00521094  RH  034%=      5-min Rain = 0
KSM1 010905Z 03014G20KT 05/M10 A3018 RMK A01 T00521095  RH  034%=      5-min Rain = 0
KSM1 010910Z 04016KT 05/M10 A3018 RMK A01 T00511095  RH  034%=      5-min Rain = 0
KSM1 010915Z 04016KT 05/M10 A3017 RMK A01 T00501095  RH  034%=      5-min Rain = 0
KSM1 010920Z 04014G19KT 05/M10 A3017 RMK A01 T00491095  RH  034%=      5-min Rain = 0
KSM1 010925Z 04017G22KT 05/M10 A3017 RMK A01 T00481096  RH  034%=      5-min Rain = 0
KSM1 010930Z 05017KT 05/M10 A3017 RMK A01 T00461096  RH  035%=      5-min Rain = 0
KSM1 010935Z 05017G22KT 05/M10 A3017 RMK A01 T00451095  RH  035%=      5-min Rain = 0
KSM1 010940Z 04015G20KT 04/M09 A3017 RMK A01 T00441094  RH  036%=      5-min Rain = 0
KSM1 010945Z 04014KT 04/M09 A3018 RMK A01 T00431094  RH  036%=      5-min Rain = 0
KSM1 010950Z 04012KT 04/M09 A3018 RMK A01 T00431094  RH  036%=      5-min Rain = 0
KSM1 010955Z 04010KT 04/M09 A3019 RMK A01 T00431093  RH  036%=      5-min Rain = 0
KSM1 011000Z 04012KT 04/M09 A3019 RMK A01 T00431092  RH  036%=      5-min Rain = 0
KSM1 011005Z 04013KT 04/M09 A3019 RMK A01 T00431092  RH  037%=      5-min Rain = 0
KSM1 011010Z 04011KT 04/M09 A3019 RMK A01 T00431092  RH  037%=      5-min Rain = 0
KSM1 011015Z 03012KT 04/M09 A3019 RMK A01 T00421092  RH  037%=      5-min Rain = 0
KSM1 011020Z 03011KT 04/M09 A3019 RMK A01 T00421092  RH  037%=      5-min Rain = 0
KSM1 011025Z 04010G15KT 04/M09 A302 RMK A01 T00421092  RH  037%=      5-min Rain = 0
KSM1 011030Z 04009KT 04/M09 A3021 RMK A01 T00411091  RH  037%=      5-min Rain = 0
KSM1 011035Z 03008KT 04/M09 A3021 RMK A01 T00411091  RH  038%=      5-min Rain = 0
KSM1 011040Z 03008KT 04/M09 A3021 RMK A01 T00411091  RH  037%=      5-min Rain = 0
KSM1 011045Z 04009KT 04/M09 A3021 RMK A01 T00421093  RH  037%=      5-min Rain = 0
KSM1 011050Z 04009KT 04/M09 A3021 RMK A01 T00421093  RH  037%=      5-min Rain = 0
KSM1 011055Z 03010KT 04/M09 A3021 RMK A01 T00421093  RH  037%=      5-min Rain = 0
KSM1 011100Z 02010KT 04/M09 A3021 RMK A01 T00421093  RH  037%=      5-min Rain = 0
KSM1 011105Z 02010KT 04/M09 A3021 RMK A01 T00421093  RH  037%=      5-min Rain = 0
KSM1 011110Z 02011KT 04/M09 A3021 RMK A01 T00421093  RH  037%=      5-min Rain = 0
KSM1 011115Z 03012KT 04/M09 A3021 RMK A01 T00421094  RH  036%=      5-min Rain = 0
KSM1 011120Z 03012KT 04/M09 A302 RMK A01 T00421094  RH  036%=      5-min Rain = 0
KSM1 011125Z 03011G16KT 04/M10 A3021 RMK A01 T00421095  RH  036%=      5-min Rain = 0
KSM1 011130Z 03011KT 04/M09 A3021 RMK A01 T00411094  RH  036%=      5-min Rain = 0
KSM1 011135Z 03011G16KT 04/M09 A3021 RMK A01 T00421094  RH  036%=      5-min Rain = 0
KSM1 011140Z 04009KT 04/M09 A3022 RMK A01 T00421094  RH  036%=      5-min Rain = 0
KSM1 011145Z 05009KT 04/M09 A3022 RMK A01 T00411094  RH  037%=      5-min Rain = 0
KSM1 011150Z 05010KT 04/M09 A3021 RMK A01 T00401093  RH  037%=      5-min Rain = 0
KSM1 011155Z 05010KT 04/M09 A3021 RMK A01 T00401092  RH  038%=      5-min Rain = 0
KSM1 011200Z 05009KT 04/M09 A3021 RMK A01 T00401092  RH  038%=      5-min Rain = 0
KSM1 011205Z 05009KT 04/M09 A3021 RMK A01 T00401092  RH  038%=      5-min Rain = 0
KSM1 011210Z 04009KT 04/M09 A3021 RMK A01 T00401092  RH  037%=      5-min Rain = 0
KSM1 011215Z 04009KT 04/M09 A3022 RMK A01 T00401091  RH  038%=      5-min Rain = 0
KSM1 011220Z 04008KT 04/M09 A3022 RMK A01 T00391091  RH  038%=      5-min Rain = 0
KSM1 011225Z 05009KT 04/M09 A3022 RMK A01 T00391091  RH  038%=      5-min Rain = 0
KSM1 011230Z 05008KT 04/M09 A3022 RMK A01 T00381090  RH  039%=      5-min Rain = 0
KSM1 011235Z 05007KT 04/M09 A3023 RMK A01 T00371090  RH  039%=      5-min Rain = 0
KSM1 011240Z 05007KT 04/M09 A3024 RMK A01 T00371089  RH  039%=      5-min Rain = 0
KSM1 011245Z 05007KT 04/M09 A3024 RMK A01 T00361089  RH  039%=      5-min Rain = 0
KSM1 011250Z 05008KT 04/M09 A3024 RMK A01 T00351089  RH  039%=      5-min Rain = 0
KSM1 011255Z 05009KT 03/M09 A3024 RMK A01 T00341089  RH  040%=      5-min Rain = 0
KSM1 011300Z 05008KT 03/M09 A3025 RMK A01 T00331089  RH  040%=      5-min Rain = 0
KSM1 011305Z 05008KT 03/M09 A3025 RMK A01 T00341088  RH  040%=      5-min Rain = 0
KSM1 011310Z 06007KT 03/M09 A3026 RMK A01 T00341088  RH  040%=      5-min Rain = 0
KSM1 011315Z 07007KT 03/M09 A3026 RMK A01 T00341088  RH  040%=      5-min Rain = 0
KSM1 011320Z 09006KT 03/M09 A3026 RMK A01 T00341087  RH  041%=      5-min Rain = 0
KSM1 011325Z 07007KT 04/M09 A3027 RMK A01 T00351087  RH  040%=      5-min Rain = 0
KSM1 011330Z 07007KT 04/M09 A3027 RMK A01 T00351088  RH  040%=      5-min Rain = 0
KSM1 011335Z 07006KT 04/M09 A3027 RMK A01 T00351088  RH  040%=      5-min Rain = 0
KSM1 011340Z 05007KT 04/M09 A3027 RMK A01 T00351088  RH  040%=      5-min Rain = 0
KSM1 011345Z 05007KT 04/M09 A3028 RMK A01 T00361088  RH  040%=      5-min Rain = 0
KSM1 011350Z 05006KT 04/M09 A3028 RMK A01 T00361089  RH  039%=      5-min Rain = 0
KSM1 011355Z 06007KT 04/M09 A3028 RMK A01 T00381091  RH  038%=      5-min Rain = 0
KSM1 011400Z 06008KT 04/M09 A3028 RMK A01 T00381091  RH  038%=      5-min Rain = 0
KSM1 011405Z 05010G15KT 04/M09 A3028 RMK A01 T00391093  RH  037%=      5-min Rain = 0
KSM1 011410Z 05012G18KT 04/M09 A3028 RMK A01 T00401090  RH  038%=      5-min Rain = 0
KSM1 011415Z 06015G21KT 05/M08 A3028 RMK A01 T00451082  RH  039%=      5-min Rain = 0
KSM1 011420Z 06016KT 05/M09 A3029 RMK A01 T00471089  RH  037%=      5-min Rain = 0
KSM1 011425Z 05015G21KT 05/M09 A303 RMK A01 T00461094  RH  035%=      5-min Rain = 0
KSM1 011430Z 05016KT 05/M08 A303 RMK A01 T00461083  RH  039%=      5-min Rain = 0
KSM1 011435Z 04018G23KT 04/M07 A3031 RMK A01 T00431071  RH  043%=      5-min Rain = 0
KSM1 011440Z 04015KT 04/M08 A3032 RMK A01 T00431078  RH  041%=      5-min Rain = 0
KSM1 011445Z 04016G21KT 04/M07 A3033 RMK A01 T00421068  RH  045%=      5-min Rain = 0
KSM1 011450Z 04016KT 04/M07 A3033 RMK A01 T00401066  RH  046%=      5-min Rain = 0
KSM1 011455Z 04013KT 04/M06 A3033 RMK A01 T00371059  RH  050%=      5-min Rain = 0
KSM1 011500Z 03012G18KT 03/M05 A3034 RMK A01 T00331054  RH  053%=      5-min Rain = 0
KSM1 011505Z 05012G18KT 03/M06 A3034 RMK A01 T00331063  RH  050%=      5-min Rain = 0
KSM1 011510Z 07013G18KT 03/M07 A3035 RMK A01 T00331067  RH  048%=      5-min Rain = 0
KSM1 011515Z 08014G20KT 03/M06 A3035 RMK A01 T00321059  RH  051%=      5-min Rain = 0
KSM1 011520Z 07016G22KT 03/M04 A3036 RMK A01 T00271043  RH  060%=      5-min Rain = 0
KSM1 011525Z 06014G20KT 02/M03 A3037 RMK A01 T00171030  RH  071%=      5-min Rain = 0
KSM1 011530Z 06012G19KT 02/M03 A3037 RMK A01 T00161030  RH  072%=      5-min Rain = 0
KSM1 011535Z 06014KT 02/M03 A3037 RMK A01 T00161027  RH  074%=      5-min Rain = 0
KSM1 011540Z 04012KT 01/M02 A3038 RMK A01 T00081022  RH  081%=      5-min Rain = 0
KSM1 011545Z 02010KT 01/M02 A3038 RMK A01 T00061021  RH  083%=      5-min Rain = 0
KSM1 011550Z 02010KT 01/M02 A3038 RMK A01 T00111016  RH  083%=      5-min Rain = 0
KSM1 011555Z 03012KT 02/M02 A3038 RMK A01 T00151019  RH  079%=      5-min Rain = 0
KSM1 011600Z 03009KT 01/M02 A3038 RMK A01 T00131020  RH  079%=      5-min Rain = 0
KSM1 011605Z 02005KT 01/M02 A3038 RMK A01 T00111019  RH  081%=      5-min Rain = 0
KSM1 011610Z 00005KT 01/M02 A3038 RMK A01 T00121016  RH  083%=      5-min Rain = 0
KSM1 011615Z 00006KT 01/M01 A3038 RMK A01 T00131014  RH  083%=      5-min Rain = 0
KSM1 011620Z 02005KT 02/M01 A3038 RMK A01 T00161011  RH  083%=      5-min Rain = 0
KSM1 011625Z 03007KT 02/M01 A3038 RMK A01 T00211005  RH  084%=      5-min Rain = 0
KSM1 011630Z 02007KT 02/M00 A3038 RMK A01 T00241003  RH  084%=      5-min Rain = 0
KSM1 011635Z 02008KT 03/M01 A3038 RMK A01 T00261005  RH  081%=      5-min Rain = 0
KSM1 011640Z 02008KT 03/M01 A3039 RMK A01 T00301009  RH  077%=      5-min Rain = 0
KSM1 011645Z 09007KT 03/M02 A3039 RMK A01 T00321017  RH  071%=      5-min Rain = 0
KSM1 011650Z 10008KT 03/M03 A304 RMK A01 T00311033  RH  063%=      5-min Rain = 0
KSM1 011655Z 08007KT 03/M04 A304 RMK A01 T00311036  RH  062%=      5-min Rain = 0
KSM1 011700Z 09007KT 03/M04 A304 RMK A01 T00311042  RH  059%=      5-min Rain = 0
KSM1 011705Z 07006KT 03/M04 A304 RMK A01 T00301043  RH  059%=      5-min Rain = 0
KSM1 011710Z 06005KT 03/M04 A304 RMK A01 T00321044  RH  058%=      5-min Rain = 0
KSM1 011715Z 07005G10KT 03/M05 A304 RMK A01 T00301045  RH  058%=      5-min Rain = 0
KSM1 011720Z 08006KT 03/M04 A3041 RMK A01 T00261041  RH  062%=      5-min Rain = 0
KSM1 011725Z 02005KT 03/M04 A3041 RMK A01 T00281038  RH  062%=      5-min Rain = 0
KSM1 011730Z 05006KT 03/M04 A3041 RMK A01 T00261036  RH  064%=      5-min Rain = 0
KSM1 011735Z 09009KT 02/M02 A3041 RMK A01 T00211019  RH  075%=      5-min Rain = 0
KSM1 011740Z 09008KT 02/M01 A3041 RMK A01 T00181014  RH  080%=      5-min Rain = 0
KSM1 011745Z 08007KT 02/M01 A3041 RMK A01 T00161014  RH  081%=      5-min Rain = 0
KSM1 011750Z 10007KT 01/M01 A3042 RMK A01 T00131013  RH  084%=      5-min Rain = 0
KSM1 011755Z 09006KT 01/M01 A3041 RMK A01 T00121009  RH  087%=      5-min Rain = 0
KSM1 011800Z 08006KT 01/M01 A3041 RMK A01 T00111008  RH  088%=      5-min Rain = 0
KSM1 011805Z 09003KT 01/M01 A3041 RMK A01 T00091009  RH  089%=      5-min Rain = 0
KSM1 011810Z 11001KT 01/M01 A3041 RMK A01 T00091009  RH  089%=      5-min Rain = 0
KSM1 011815Z 17001KT 01/M01 A3041 RMK A01 T00101007  RH  090%=      5-min Rain = 0
KSM1 011820Z 27001KT 01/M01 A3042 RMK A01 T00111006  RH  090%=      5-min Rain = 0
KSM1 011825Z 29003KT 01/M00 A3041 RMK A01 T00121004  RH  090%=      5-min Rain = 0
KSM1 011830Z 29003KT 01/M00 A3041 RMK A01 T00141002  RH  090%=      5-min Rain = 0
KSM1 011835Z 30000KT 02/M00 A3041 RMK A01 T00161002  RH  089%=      5-min Rain = 0
KSM1 011840Z 12002KT 02/00 A3041 RMK A01 T00200001  RH  088%=      5-min Rain = 0
KSM1 011845Z 11003KT 02/00 A3041 RMK A01 T002400-0  RH  085%=      5-min Rain = 0
KSM1 011850Z 09002KT 03/M01 A304 RMK A01 T00291007  RH  078%=      5-min Rain = 0
KSM1 011855Z 00002KT 03/M02 A304 RMK A01 T00341015  RH  071%=      5-min Rain = 0
KSM1 011900Z 03003KT 04/M02 A304 RMK A01 T00381017  RH  068%=      5-min Rain = 0
KSM1 011905Z 05003KT 04/M02 A304 RMK A01 T00401017  RH  067%=      5-min Rain = 0
KSM1 011910Z 10004KT 04/M02 A304 RMK A01 T00401021  RH  065%=      5-min Rain = 0
KSM1 011915Z 09005KT 04/M02 A304 RMK A01 T00431020  RH  064%=      5-min Rain = 0
KSM1 011920Z 09005KT 05/M02 A304 RMK A01 T00461019  RH  063%=      5-min Rain = 0
KSM1 011925Z 07007KT 05/M03 A304 RMK A01 T00481027  RH  059%=      5-min Rain = 0
KSM1 011930Z 05006KT 05/M03 A304 RMK A01 T00471033  RH  056%=      5-min Rain = 0
KSM1 011935Z 09006KT 05/M03 A304 RMK A01 T00491025  RH  059%=      5-min Rain = 0
KSM1 011940Z 11005KT 05/M02 A3039 RMK A01 T00481023  RH  060%=      5-min Rain = 0
KSM1 011945Z 11007KT 05/M02 A3039 RMK A01 T00491021  RH  061%=      5-min Rain = 0
KSM1 011950Z 14011KT 05/M01 A3039 RMK A01 T00451012  RH  067%=      5-min Rain = 0
KSM1 011955Z 15009KT 04/M02 A3039 RMK A01 T00401015  RH  068%=      5-min Rain = 0
KSM1 012000Z 14007KT 04/M01 A3039 RMK A01 T00421012  RH  068%=      5-min Rain = 0
KSM1 012005Z 14007KT 04/M01 A3039 RMK A01 T00441011  RH  068%=      5-min Rain = 0
KSM1 012010Z 14007KT 04/M01 A3039 RMK A01 T00441014  RH  067%=      5-min Rain = 0
KSM1 012015Z 14006KT 05/M02 A3039 RMK A01 T00451015  RH  066%=      5-min Rain = 0
KSM1 012020Z 14006KT 05/M01 A3038 RMK A01 T00491014  RH  064%=      5-min Rain = 0
KSM1 012025Z 13007KT 05/M02 A3038 RMK A01 T00481022  RH  061%=      5-min Rain = 0
KSM1 012030Z 12006KT 05/M02 A3038 RMK A01 T00471024  RH  060%=      5-min Rain = 0
KSM1 012035Z 12008KT 05/M02 A3038 RMK A01 T00481023  RH  060%=      5-min Rain = 0
KSM1 012040Z 13009KT 05/M02 A3038 RMK A01 T00491018  RH  062%=      5-min Rain = 0
KSM1 012045Z 14011KT 04/M02 A3038 RMK A01 T00441021  RH  063%=      5-min Rain = 0
KSM1 012050Z 13010KT 05/M02 A3038 RMK A01 T00451021  RH  063%=      5-min Rain = 0
KSM1 012055Z 12010KT 04/M02 A3038 RMK A01 T00421024  RH  062%=      5-min Rain = 0
KSM1 012100Z 13011KT 04/M02 A3038 RMK A01 T00401024  RH  063%=      5-min Rain = 0
KSM1 012105Z 13009KT 04/M03 A3038 RMK A01 T00391025  RH  063%=      5-min Rain = 0
KSM1 012110Z 12010KT 04/M02 A3038 RMK A01 T00401021  RH  065%=      5-min Rain = 0
KSM1 012115Z 13010KT 04/M02 A3038 RMK A01 T00391022  RH  065%=      5-min Rain = 0
KSM1 012120Z 14010KT 04/M02 A3038 RMK A01 T00351022  RH  067%=      5-min Rain = 0
KSM1 012125Z 13010KT 04/M02 A3038 RMK A01 T00351020  RH  068%=      5-min Rain = 0
KSM1 012130Z 12010KT 03/M02 A3038 RMK A01 T00331020  RH  069%=      5-min Rain = 0
KSM1 012135Z 12010KT 03/M02 A3038 RMK A01 T00321020  RH  069%=      5-min Rain = 0
KSM1 012140Z 14009KT 03/M02 A3038 RMK A01 T00301020  RH  070%=      5-min Rain = 0
KSM1 012145Z 14009KT 03/M02 A3038 RMK A01 T00281022  RH  070%=      5-min Rain = 0
KSM1 012150Z 13009KT 03/M02 A3038 RMK A01 T00281021  RH  071%=      5-min Rain = 0
KSM1 012155Z 14007KT 03/M02 A3038 RMK A01 T00291020  RH  071%=      5-min Rain = 0
KSM1 012200Z 16007KT 03/M02 A3038 RMK A01 T00311017  RH  071%=      5-min Rain = 0
KSM1 012205Z 16008KT 03/M02 A3038 RMK A01 T00301018  RH  071%=      5-min Rain = 0
KSM1 012210Z 16008KT 03/M02 A3037 RMK A01 T00311020  RH  070%=      5-min Rain = 0
KSM1 012215Z 16008KT 03/M02 A3037 RMK A01 T00311018  RH  071%=      5-min Rain = 0
KSM1 012220Z 16007KT 03/M02 A3037 RMK A01 T00301019  RH  071%=      5-min Rain = 0
KSM1 012225Z 16007KT 03/M02 A3037 RMK A01 T00311019  RH  070%=      5-min Rain = 0
KSM1 012230Z 17008KT 03/M02 A3037 RMK A01 T00331019  RH  069%=      5-min Rain = 0
KSM1 012235Z 18008KT 03/M02 A3037 RMK A01 T00331021  RH  068%=      5-min Rain = 0
KSM1 012240Z 17007KT 03/M02 A3037 RMK A01 T00341020  RH  068%=      5-min Rain = 0
KSM1 012245Z 17007KT 03/M02 A3037 RMK A01 T00341021  RH  068%=      5-min Rain = 0
KSM1 012250Z 17007KT 04/M02 A3037 RMK A01 T00361020  RH  067%=      5-min Rain = 0
KSM1 012255Z 18006KT 04/M02 A3037 RMK A01 T00361022  RH  066%=      5-min Rain = 0
KSM1 012300Z 19006KT 04/M02 A3037 RMK A01 T00371021  RH  066%=      5-min Rain = 0
KSM1 012305Z 19006KT 04/M03 A3037 RMK A01 T00381025  RH  064%=      5-min Rain = 0
KSM1 012310Z 19006KT 04/M03 A3037 RMK A01 T00401026  RH  063%=      5-min Rain = 0
KSM1 012315Z 20006KT 04/M03 A3037 RMK A01 T00411025  RH  062%=      5-min Rain = 0
KSM1 012320Z 20007KT 04/M03 A3037 RMK A01 T00421027  RH  061%=      5-min Rain = 0
KSM1 012325Z 19006KT 04/M03 A3037 RMK A01 T00421028  RH  061%=      5-min Rain = 0
KSM1 012330Z 18006KT 04/M03 A3037 RMK A01 T00431029  RH  060%=      5-min Rain = 0
KSM1 012335Z 19006KT 04/M03 A3037 RMK A01 T00431029  RH  060%=      5-min Rain = 0
KSM1 012340Z 18006KT 04/M03 A3036 RMK A01 T00431030  RH  059%=      5-min Rain = 0
KSM1 012345Z 15006KT 04/M03 A3036 RMK A01 T00431031  RH  059%=      5-min Rain = 0
KSM1 012350Z 16007KT 04/M03 A3036 RMK A01 T00431031  RH  059%=      5-min Rain = 0
KSM1 012355Z 18006KT 04/M03 A3036 RMK A01 T00431032  RH  058%=      5-min Rain = 0
KSM1 020000Z 19007KT 04/M03 A3036 RMK A01 T00431033  RH  058%=      5-min Rain = 0
KSM1 020005Z 19006KT 04/M03 A3036 RMK A01 T00441034  RH  057%=      5-min Rain = 0
KSM1 020010Z 20005KT 05/M03 A3036 RMK A01 T00451034  RH  057%=      5-min Rain = 0
KSM1 020015Z 17005KT 05/M04 A3037 RMK A01 T00471035  RH  056%=      5-min Rain = 0
KSM1 020020Z 17005KT 05/M04 A3037 RMK A01 T00461037  RH  055%=      5-min Rain = 0
KSM1 020025Z 18004KT 04/M04 A3037 RMK A01 T00441039  RH  055%=      5-min Rain = 0
KSM1 020030Z 18004KT 04/M04 A3037 RMK A01 T00421038  RH  056%=      5-min Rain = 0
KSM1 020035Z 19003KT 04/M04 A3037 RMK A01 T00381038  RH  058%=      5-min Rain = 0
KSM1 020040Z 18004KT 03/M04 A3037 RMK A01 T00341039  RH  059%=      5-min Rain = 0
KSM1 020045Z 18005KT 03/M04 A3037 RMK A01 T00301040  RH  060%=      5-min Rain = 0
KSM1 020050Z 18005KT 02/M04 A3037 RMK A01 T00231041  RH  062%=      5-min Rain = 0
KSM1 020055Z 19004KT 02/M04 A3037 RMK A01 T00221042  RH  063%=      5-min Rain = 0
KSM1 020100Z 17004KT 02/M04 A3037 RMK A01 T00211044  RH  062%=      5-min Rain = 0
KSM1 020105Z 17004KT 02/M04 A3037 RMK A01 T00161043  RH  065%=      5-min Rain = 0
KSM1 020110Z 15005KT 01/M04 A3037 RMK A01 T00111044  RH  067%=      5-min Rain = 0
KSM1 020115Z 15006KT 01/M05 A3037 RMK A01 T00081047  RH  067%=      5-min Rain = 0
KSM1 020120Z 15005KT 01/M05 A3037 RMK A01 T00101047  RH  066%=      5-min Rain = 0
KSM1 020125Z 15005KT 01/M05 A3037 RMK A01 T00081048  RH  066%=      5-min Rain = 0
KSM1 020130Z 16005KT 01/M05 A3037 RMK A01 T00071048  RH  067%=      5-min Rain = 0
KSM1 020135Z 16004KT 00/M05 A3037 RMK A01 T00041050  RH  067%=      5-min Rain = 0
KSM1 020140Z 16005KT 00/05 A3037 RMK A01 T00000-51  RH  068%=      5-min Rain = 0
KSM1 020145Z 16004KT 00/05 A3037 RMK A01 T00-00-50  RH  070%=      5-min Rain = 0
KSM1 020150Z 16004KT 00/M05 A3037 RMK A01 T00021048  RH  070%=      5-min Rain = 0
KSM1 020155Z 16004KT 00/M05 A3036 RMK A01 T00031049  RH  068%=      5-min Rain = 0
KSM1 020200Z 16003KT 00/M05 A3036 RMK A01 T00021050  RH  069%=      5-min Rain = 0
KSM1 020205Z 15003KT M00/M05 A3036 RMK A01 T10011052  RH  069%=      5-min Rain = 0
KSM1 020210Z 15003KT M01/M06 A3037 RMK A01 T10081055  RH  070%=      5-min Rain = 0
KSM1 020215Z 15003KT M01/M05 A3037 RMK A01 T10081053  RH  072%=      5-min Rain = 0
KSM1 020220Z 15003KT M00/M05 A3037 RMK A01 T10041051  RH  071%=      5-min Rain = 0
KSM1 020225Z 15003KT M00/M05 A3037 RMK A01 T10031053  RH  069%=      5-min Rain = 0
KSM1 020230Z 16003KT M00/M05 A3036 RMK A01 T10041054  RH  069%=      5-min Rain = 0
KSM1 020235Z 19003KT 00/M05 A3036 RMK A01 T00011048  RH  070%=      5-min Rain = 0
KSM1 020240Z 19003KT 00/M05 A3036 RMK A01 T00041046  RH  069%=      5-min Rain = 0
KSM1 020245Z 21003KT 01/M05 A3037 RMK A01 T00061048  RH  067%=      5-min Rain = 0
KSM1 020250Z 21004KT 01/M05 A3037 RMK A01 T00111048  RH  065%=      5-min Rain = 0
KSM1 020255Z 21004KT 01/M05 A3037 RMK A01 T00111048  RH  065%=      5-min Rain = 0
KSM1 020300Z 21004KT 01/M05 A3037 RMK A01 T00131047  RH  065%=      5-min Rain = 0
KSM1 020305Z 20003KT 01/M05 A3037 RMK A01 T00111049  RH  065%=      5-min Rain = 0
KSM1 020310Z 21003KT 01/M05 A3037 RMK A01 T00091050  RH  065%=      5-min Rain = 0
KSM1 020315Z 21003KT 01/M05 A3037 RMK A01 T00061051  RH  066%=      5-min Rain = 0
KSM1 020320Z 22003KT 01/M05 A3037 RMK A01 T00071047  RH  067%=      5-min Rain = 0
KSM1 020325Z 23003KT 01/M05 A3037 RMK A01 T00081047  RH  067%=      5-min Rain = 0
KSM1 020330Z 26005KT M00/M05 A3038 RMK A01 T10031052  RH  069%=      5-min Rain = 0
KSM1 020335Z 26008KT M00/M05 A3038 RMK A01 T10041049  RH  072%=      5-min Rain = 0
KSM1 020340Z 26007KT M01/M05 A3038 RMK A01 T10061047  RH  074%=      5-min Rain = 0
KSM1 020345Z 26006KT M01/M05 A3038 RMK A01 T10071046  RH  075%=      5-min Rain = 0
KSM1 020350Z 26006KT M01/M05 A3038 RMK A01 T10081046  RH  076%=      5-min Rain = 0
KSM1 020355Z 27005KT M01/M05 A3038 RMK A01 T10071045  RH  076%=      5-min Rain = 0
KSM1 020400Z 27004KT M01/M05 A3038 RMK A01 T10091047  RH  076%=      5-min Rain = 0
KSM1 020405Z 27003KT M01/M05 A3037 RMK A01 T10121049  RH  076%=      5-min Rain = 0
KSM1 020410Z 27003KT M02/M05 A3037 RMK A01 T10161050  RH  078%=      5-min Rain = 0
KSM1 020415Z 27003KT M02/M05 A3037 RMK A01 T10171050  RH  079%=      5-min Rain = 0
KSM1 020420Z 26005KT M02/M05 A3037 RMK A01 T10161047  RH  080%=      5-min Rain = 0
KSM1 020425Z 27004KT M01/M05 A3037 RMK A01 T10141046  RH  079%=      5-min Rain = 0
KSM1 020430Z 27004KT M01/M05 A3037 RMK A01 T10141047  RH  079%=      5-min Rain = 0
KSM1 020435Z 27005KT M02/M05 A3037 RMK A01 T10151047  RH  079%=      5-min Rain = 0
KSM1 020440Z 26004KT M02/M05 A3037 RMK A01 T10161048  RH  079%=      5-min Rain = 0
KSM1 020445Z 26004KT M02/M05 A3037 RMK A01 T10151047  RH  079%=      5-min Rain = 0
KSM1 020450Z 27004KT M02/M05 A3037 RMK A01 T10151047  RH  079%=      5-min Rain = 0
KSM1 020455Z 26005KT M02/M05 A3037 RMK A01 T10151046  RH  080%=      5-min Rain = 0
KSM1 020500Z 26005KT M02/M05 A3037 RMK A01 T10151047  RH  079%=      5-min Rain = 0
KSM1 020505Z 26005KT M02/M05 A3037 RMK A01 T10171048  RH  080%=      5-min Rain = 0
KSM1 020510Z 27004KT M02/M05 A3037 RMK A01 T10191049  RH  080%=      5-min Rain = 0
KSM1 020515Z 26005KT M02/M05 A3036 RMK A01 T10201050  RH  080%=      5-min Rain = 0
KSM1 020520Z 26005KT M02/M05 A3036 RMK A01 T10211050  RH  081%=      5-min Rain = 0
KSM1 020525Z 26004KT M02/M05 A3036 RMK A01 T10201050  RH  080%=      5-min Rain = 0
KSM1 020530Z 26004KT M02/M05 A3036 RMK A01 T10201052  RH  079%=      5-min Rain = 0
KSM1 020535Z 26004KT M02/M05 A3036 RMK A01 T10221053  RH  079%=      5-min Rain = 0
KSM1 020540Z 26005KT M02/M05 A3036 RMK A01 T10221054  RH  079%=      5-min Rain = 0
KSM1 020545Z 25005KT M02/M05 A3036 RMK A01 T10231054  RH  079%=      5-min Rain = 0
KSM1 020550Z 25006KT M02/M06 A3036 RMK A01 T10221055  RH  078%=      5-min Rain = 0
KSM1 020555Z 25007KT M02/M06 A3036 RMK A01 T10211057  RH  077%=      5-min Rain = 0

Page generated in 0.0097 seconds.